sensor_id;sensor_type;location;lat;lon;timestamp;P1;durP1;ratioP1;P2;durP2;ratioP2
77955;SDS011;67152;36.266;32.294;2023-02-15T00:01:54;11.10;;;4.05;;
77955;SDS011;67152;36.266;32.294;2023-02-15T00:04:22;8.60;;;5.32;;
77955;SDS011;67152;36.266;32.294;2023-02-15T00:06:49;8.57;;;4.25;;
77955;SDS011;67152;36.266;32.294;2023-02-15T00:09:16;6.72;;;3.50;;
77955;SDS011;67152;36.266;32.294;2023-02-15T00:11:43;6.88;;;3.60;;
77955;SDS011;67152;36.266;32.294;2023-02-15T00:14:16;10.13;;;4.22;;
77955;SDS011;67152;36.266;32.294;2023-02-15T00:16:45;11.05;;;5.22;;
77955;SDS011;67152;36.266;32.294;2023-02-15T00:19:13;5.72;;;2.75;;
77955;SDS011;67152;36.266;32.294;2023-02-15T00:21:42;6.68;;;4.20;;
77955;SDS011;67152;36.266;32.294;2023-02-15T00:24:09;6.63;;;4.37;;
77955;SDS011;67152;36.266;32.294;2023-02-15T00:26:38;8.23;;;3.00;;
77955;SDS011;67152;36.266;32.294;2023-02-15T00:29:06;3.50;;;2.15;;
77955;SDS011;67152;36.266;32.294;2023-02-15T00:31:33;4.95;;;2.03;;
77955;SDS011;67152;36.266;32.294;2023-02-15T00:34:03;12.00;;;4.20;;
77955;SDS011;67152;36.266;32.294;2023-02-15T00:36:50;6.15;;;3.03;;
77955;SDS011;67152;36.266;32.294;2023-02-15T00:39:17;4.93;;;2.63;;
77955;SDS011;67152;36.266;32.294;2023-02-15T00:41:44;6.22;;;3.22;;
77955;SDS011;67152;36.266;32.294;2023-02-15T00:44:11;8.45;;;3.53;;
77955;SDS011;67152;36.266;32.294;2023-02-15T00:46:39;8.35;;;3.53;;
77955;SDS011;67152;36.266;32.294;2023-02-15T00:49:06;7.32;;;3.00;;
77955;SDS011;67152;36.266;32.294;2023-02-15T00:51:33;8.15;;;3.45;;
77955;SDS011;67152;36.266;32.294;2023-02-15T00:54:00;14.98;;;4.57;;
77955;SDS011;67152;36.266;32.294;2023-02-15T00:56:26;13.63;;;5.72;;
77955;SDS011;67152;36.266;32.294;2023-02-15T00:58:54;8.25;;;3.85;;
77955;SDS011;67152;36.266;32.294;2023-02-15T01:01:21;18.00;;;4.90;;
77955;SDS011;67152;36.266;32.294;2023-02-15T01:03:48;11.27;;;4.65;;
77955;SDS011;67152;36.266;32.294;2023-02-15T01:06:15;17.52;;;6.05;;
77955;SDS011;67152;36.266;32.294;2023-02-15T01:08:42;7.65;;;4.45;;
77955;SDS011;67152;36.266;32.294;2023-02-15T01:11:11;11.93;;;5.22;;
77955;SDS011;67152;36.266;32.294;2023-02-15T01:13:48;21.30;;;7.72;;
77955;SDS011;67152;36.266;32.294;2023-02-15T01:16:16;17.63;;;7.18;;
77955;SDS011;67152;36.266;32.294;2023-02-15T01:18:43;14.20;;;4.80;;
77955;SDS011;67152;36.266;32.294;2023-02-15T01:21:14;13.15;;;5.68;;
77955;SDS011;67152;36.266;32.294;2023-02-15T01:23:43;19.70;;;8.18;;
77955;SDS011;67152;36.266;32.294;2023-02-15T01:26:10;10.50;;;4.90;;
77955;SDS011;67152;36.266;32.294;2023-02-15T01:28:37;8.32;;;3.65;;
77955;SDS011;67152;36.266;32.294;2023-02-15T01:31:13;13.13;;;5.13;;
77955;SDS011;67152;36.266;32.294;2023-02-15T01:33:42;9.20;;;4.75;;
77955;SDS011;67152;36.266;32.294;2023-02-15T01:36:09;8.52;;;4.10;;
77955;SDS011;67152;36.266;32.294;2023-02-15T01:38:36;11.73;;;6.20;;
77955;SDS011;67152;36.266;32.294;2023-02-15T01:41:03;12.07;;;5.90;;
77955;SDS011;67152;36.266;32.294;2023-02-15T01:43:46;10.90;;;5.70;;
77955;SDS011;67152;36.266;32.294;2023-02-15T01:46:16;10.73;;;6.13;;
77955;SDS011;67152;36.266;32.294;2023-02-15T01:51:14;10.35;;;5.80;;
77955;SDS011;67152;36.266;32.294;2023-02-15T01:53:49;7.93;;;4.28;;
77955;SDS011;67152;36.266;32.294;2023-02-15T01:56:22;15.60;;;6.82;;
77955;SDS011;67152;36.266;32.294;2023-02-15T01:58:51;15.27;;;7.95;;
77955;SDS011;67152;36.266;32.294;2023-02-15T02:01:21;12.82;;;5.95;;
77955;SDS011;67152;36.266;32.294;2023-02-15T02:06:37;13.20;;;7.88;;
77955;SDS011;67152;36.266;32.294;2023-02-15T02:09:05;15.25;;;8.63;;
77955;SDS011;67152;36.266;32.294;2023-02-15T02:11:32;17.67;;;7.43;;
77955;SDS011;67152;36.266;32.294;2023-02-15T02:14:00;20.23;;;8.82;;
77955;SDS011;67152;36.266;32.294;2023-02-15T02:27:46;12.18;;;6.43;;
77955;SDS011;67152;36.266;32.294;2023-02-15T02:35:30;27.80;;;11.07;;
77955;SDS011;67152;36.266;32.294;2023-02-15T02:38:23;19.15;;;10.35;;
77955;SDS011;67152;36.266;32.294;2023-02-15T02:41:02;28.75;;;11.30;;
77955;SDS011;67152;36.266;32.294;2023-02-15T02:43:59;29.35;;;12.13;;
77955;SDS011;67152;36.266;32.294;2023-02-15T02:46:31;29.60;;;12.95;;
77955;SDS011;67152;36.266;32.294;2023-02-15T02:49:00;29.98;;;12.50;;
77955;SDS011;67152;36.266;32.294;2023-02-15T02:51:27;33.28;;;13.80;;
77955;SDS011;67152;36.266;32.294;2023-02-15T02:53:56;24.02;;;11.38;;
77955;SDS011;67152;36.266;32.294;2023-02-15T02:56:30;14.23;;;8.02;;
77955;SDS011;67152;36.266;32.294;2023-02-15T02:59:00;18.17;;;7.75;;
77955;SDS011;67152;36.266;32.294;2023-02-15T03:01:55;19.58;;;9.00;;
77955;SDS011;67152;36.266;32.294;2023-02-15T03:04:28;29.83;;;11.27;;
77955;SDS011;67152;36.266;32.294;2023-02-15T03:07:00;28.77;;;14.60;;
77955;SDS011;67152;36.266;32.294;2023-02-15T03:09:36;37.08;;;20.50;;
77955;SDS011;67152;36.266;32.294;2023-02-15T03:12:14;42.15;;;20.70;;
77955;SDS011;67152;36.266;32.294;2023-02-15T03:14:44;60.28;;;28.42;;
77955;SDS011;67152;36.266;32.294;2023-02-15T03:17:15;23.40;;;13.18;;
77955;SDS011;67152;36.266;32.294;2023-02-15T03:19:43;62.00;;;26.75;;
77955;SDS011;67152;36.266;32.294;2023-02-15T03:22:21;41.03;;;18.63;;
77955;SDS011;67152;36.266;32.294;2023-02-15T03:25:09;30.48;;;12.05;;
77955;SDS011;67152;36.266;32.294;2023-02-15T03:27:40;32.10;;;14.48;;
77955;SDS011;67152;36.266;32.294;2023-02-15T03:30:10;45.72;;;18.80;;
77955;SDS011;67152;36.266;32.294;2023-02-15T03:32:38;44.50;;;19.38;;
77955;SDS011;67152;36.266;32.294;2023-02-15T03:35:06;52.97;;;24.15;;
77955;SDS011;67152;36.266;32.294;2023-02-15T03:45:57;36.47;;;18.08;;
77955;SDS011;67152;36.266;32.294;2023-02-15T03:48:38;48.00;;;21.58;;
77955;SDS011;67152;36.266;32.294;2023-02-15T03:51:11;67.30;;;27.90;;
77955;SDS011;67152;36.266;32.294;2023-02-15T03:54:09;61.92;;;28.90;;
77955;SDS011;67152;36.266;32.294;2023-02-15T03:57:01;65.38;;;28.48;;
77955;SDS011;67152;36.266;32.294;2023-02-15T04:00:04;55.30;;;25.67;;
77955;SDS011;67152;36.266;32.294;2023-02-15T04:03:09;31.25;;;12.50;;
77955;SDS011;67152;36.266;32.294;2023-02-15T04:05:42;42.70;;;20.40;;
77955;SDS011;67152;36.266;32.294;2023-02-15T04:08:10;59.25;;;24.77;;
77955;SDS011;67152;36.266;32.294;2023-02-15T04:13:24;48.13;;;21.27;;
77955;SDS011;67152;36.266;32.294;2023-02-15T04:15:56;27.45;;;12.35;;
77955;SDS011;67152;36.266;32.294;2023-02-15T04:18:33;40.90;;;19.45;;
77955;SDS011;67152;36.266;32.294;2023-02-15T04:21:23;59.00;;;24.67;;
77955;SDS011;67152;36.266;32.294;2023-02-15T04:24:10;58.63;;;28.52;;
77955;SDS011;67152;36.266;32.294;2023-02-15T04:26:55;51.72;;;22.60;;
77955;SDS011;67152;36.266;32.294;2023-02-15T04:29:23;60.15;;;26.45;;
77955;SDS011;67152;36.266;32.294;2023-02-15T04:31:50;55.55;;;22.20;;
77955;SDS011;67152;36.266;32.294;2023-02-15T04:34:18;44.00;;;19.20;;
77955;SDS011;67152;36.266;32.294;2023-02-15T04:36:45;55.20;;;25.27;;
77955;SDS011;67152;36.266;32.294;2023-02-15T04:39:12;41.67;;;16.77;;
77955;SDS011;67152;36.266;32.294;2023-02-15T04:41:39;39.00;;;17.38;;
77955;SDS011;67152;36.266;32.294;2023-02-15T04:44:06;43.67;;;19.25;;
77955;SDS011;67152;36.266;32.294;2023-02-15T04:46:33;48.08;;;19.58;;
77955;SDS011;67152;36.266;32.294;2023-02-15T04:49:00;44.17;;;19.17;;
77955;SDS011;67152;36.266;32.294;2023-02-15T04:51:27;49.33;;;20.25;;
77955;SDS011;67152;36.266;32.294;2023-02-15T04:53:54;51.70;;;22.02;;
77955;SDS011;67152;36.266;32.294;2023-02-15T04:56:22;43.97;;;18.75;;
77955;SDS011;67152;36.266;32.294;2023-02-15T04:58:49;44.92;;;21.55;;
77955;SDS011;67152;36.266;32.294;2023-02-15T05:01:15;51.17;;;19.40;;
77955;SDS011;67152;36.266;32.294;2023-02-15T05:03:43;66.97;;;24.85;;
77955;SDS011;67152;36.266;32.294;2023-02-15T05:06:10;57.03;;;27.00;;
77955;SDS011;67152;36.266;32.294;2023-02-15T05:08:36;58.92;;;29.10;;
77955;SDS011;67152;36.266;32.294;2023-02-15T05:11:03;61.22;;;30.60;;
77955;SDS011;67152;36.266;32.294;2023-02-15T05:13:30;93.80;;;41.67;;
77955;SDS011;67152;36.266;32.294;2023-02-15T05:15:56;82.45;;;42.35;;
77955;SDS011;67152;36.266;32.294;2023-02-15T05:18:23;81.30;;;45.67;;
77955;SDS011;67152;36.266;32.294;2023-02-15T05:20:50;76.53;;;43.03;;
77955;SDS011;67152;36.266;32.294;2023-02-15T05:23:17;88.47;;;48.87;;
77955;SDS011;67152;36.266;32.294;2023-02-15T05:25:50;85.27;;;43.57;;
77955;SDS011;67152;36.266;32.294;2023-02-15T05:28:36;58.45;;;30.20;;
77955;SDS011;67152;36.266;32.294;2023-02-15T05:31:18;57.42;;;30.95;;
77955;SDS011;67152;36.266;32.294;2023-02-15T05:33:45;53.30;;;30.48;;
77955;SDS011;67152;36.266;32.294;2023-02-15T05:36:12;52.55;;;29.08;;
77955;SDS011;67152;36.266;32.294;2023-02-15T05:38:39;56.65;;;29.55;;
77955;SDS011;67152;36.266;32.294;2023-02-15T05:41:07;57.63;;;32.83;;
77955;SDS011;67152;36.266;32.294;2023-02-15T05:43:35;60.03;;;34.25;;
77955;SDS011;67152;36.266;32.294;2023-02-15T05:48:28;64.45;;;39.15;;
77955;SDS011;67152;36.266;32.294;2023-02-15T05:50:56;61.13;;;37.70;;
77955;SDS011;67152;36.266;32.294;2023-02-15T05:53:28;49.63;;;29.17;;
77955;SDS011;67152;36.266;32.294;2023-02-15T05:55:56;63.47;;;33.53;;
77955;SDS011;67152;36.266;32.294;2023-02-15T05:58:25;43.55;;;24.52;;
77955;SDS011;67152;36.266;32.294;2023-02-15T06:00:53;50.90;;;23.92;;
77955;SDS011;67152;36.266;32.294;2023-02-15T06:03:20;36.75;;;18.15;;
77955;SDS011;67152;36.266;32.294;2023-02-15T06:05:47;39.20;;;17.50;;
77955;SDS011;67152;36.266;32.294;2023-02-15T06:08:14;15.93;;;8.40;;
77955;SDS011;67152;36.266;32.294;2023-02-15T06:10:41;35.03;;;12.67;;
77955;SDS011;67152;36.266;32.294;2023-02-15T06:13:08;24.08;;;10.73;;
77955;SDS011;67152;36.266;32.294;2023-02-15T06:15:35;37.53;;;11.90;;
77955;SDS011;67152;36.266;32.294;2023-02-15T06:18:02;27.30;;;8.48;;
77955;SDS011;67152;36.266;32.294;2023-02-15T06:20:29;29.73;;;8.85;;
77955;SDS011;67152;36.266;32.294;2023-02-15T06:27:20;18.52;;;8.32;;
77955;SDS011;67152;36.266;32.294;2023-02-15T06:29:47;11.47;;;6.80;;
77955;SDS011;67152;36.266;32.294;2023-02-15T06:32:13;20.83;;;12.40;;
77955;SDS011;67152;36.266;32.294;2023-02-15T06:34:40;13.40;;;7.03;;
77955;SDS011;67152;36.266;32.294;2023-02-15T06:37:07;18.15;;;10.23;;
77955;SDS011;67152;36.266;32.294;2023-02-15T06:39:34;21.63;;;11.55;;
77955;SDS011;67152;36.266;32.294;2023-02-15T06:42:01;21.20;;;9.80;;
77955;SDS011;67152;36.266;32.294;2023-02-15T06:44:27;16.20;;;7.83;;
77955;SDS011;67152;36.266;32.294;2023-02-15T06:46:54;24.80;;;13.03;;
77955;SDS011;67152;36.266;32.294;2023-02-15T06:49:21;25.57;;;14.90;;
77955;SDS011;67152;36.266;32.294;2023-02-15T06:51:48;26.42;;;12.45;;
77955;SDS011;67152;36.266;32.294;2023-02-15T06:54:14;21.43;;;11.40;;
77955;SDS011;67152;36.266;32.294;2023-02-15T06:56:41;30.00;;;14.85;;
77955;SDS011;67152;36.266;32.294;2023-02-15T06:59:09;16.88;;;5.18;;
77955;SDS011;67152;36.266;32.294;2023-02-15T07:01:36;11.73;;;3.63;;
77955;SDS011;67152;36.266;32.294;2023-02-15T07:06:31;6.95;;;3.75;;
77955;SDS011;67152;36.266;32.294;2023-02-15T07:08:59;7.57;;;2.47;;
77955;SDS011;67152;36.266;32.294;2023-02-15T07:11:26;8.50;;;3.15;;
77955;SDS011;67152;36.266;32.294;2023-02-15T07:14:12;3.88;;;2.03;;
77955;SDS011;67152;36.266;32.294;2023-02-15T07:16:39;5.82;;;3.03;;
77955;SDS011;67152;36.266;32.294;2023-02-15T07:19:06;9.50;;;2.03;;
77955;SDS011;67152;36.266;32.294;2023-02-15T07:21:34;4.93;;;2.50;;
77955;SDS011;67152;36.266;32.294;2023-02-15T07:24:01;15.75;;;2.67;;
77955;SDS011;67152;36.266;32.294;2023-02-15T07:26:30;10.48;;;3.55;;
77955;SDS011;67152;36.266;32.294;2023-02-15T07:28:58;10.73;;;3.17;;
77955;SDS011;67152;36.266;32.294;2023-02-15T07:31:25;3.38;;;2.15;;
77955;SDS011;67152;36.266;32.294;2023-02-15T07:33:51;8.97;;;3.07;;
77955;SDS011;67152;36.266;32.294;2023-02-15T07:36:18;8.35;;;1.98;;
77955;SDS011;67152;36.266;32.294;2023-02-15T07:38:45;11.53;;;3.30;;
77955;SDS011;67152;36.266;32.294;2023-02-15T07:41:13;5.93;;;2.47;;
77955;SDS011;67152;36.266;32.294;2023-02-15T07:43:41;7.15;;;2.45;;
77955;SDS011;67152;36.266;32.294;2023-02-15T07:46:10;3.58;;;2.40;;
77955;SDS011;67152;36.266;32.294;2023-02-15T07:48:39;9.77;;;3.75;;
77955;SDS011;67152;36.266;32.294;2023-02-15T07:51:07;19.52;;;3.95;;
77955;SDS011;67152;36.266;32.294;2023-02-15T07:53:38;6.10;;;3.22;;
77955;SDS011;67152;36.266;32.294;2023-02-15T07:56:11;12.45;;;3.90;;
77955;SDS011;67152;36.266;32.294;2023-02-15T07:58:39;7.07;;;2.25;;
77955;SDS011;67152;36.266;32.294;2023-02-15T08:01:19;13.05;;;3.10;;
77955;SDS011;67152;36.266;32.294;2023-02-15T08:03:48;3.42;;;2.28;;
77955;SDS011;67152;36.266;32.294;2023-02-15T08:06:15;8.15;;;2.72;;
77955;SDS011;67152;36.266;32.294;2023-02-15T08:08:42;9.77;;;2.70;;
77955;SDS011;67152;36.266;32.294;2023-02-15T08:14:10;7.25;;;3.08;;
77955;SDS011;67152;36.266;32.294;2023-02-15T08:16:42;11.98;;;2.80;;
77955;SDS011;67152;36.266;32.294;2023-02-15T08:21:48;2.88;;;1.90;;
77955;SDS011;67152;36.266;32.294;2023-02-15T08:24:17;5.72;;;2.53;;
77955;SDS011;67152;36.266;32.294;2023-02-15T08:26:49;9.32;;;2.90;;
77955;SDS011;67152;36.266;32.294;2023-02-15T08:29:17;7.03;;;2.75;;
77955;SDS011;67152;36.266;32.294;2023-02-15T08:31:46;9.48;;;3.42;;
77955;SDS011;67152;36.266;32.294;2023-02-15T08:34:15;5.75;;;3.25;;
77955;SDS011;67152;36.266;32.294;2023-02-15T08:36:43;5.30;;;2.00;;
77955;SDS011;67152;36.266;32.294;2023-02-15T08:39:14;4.80;;;2.35;;
77955;SDS011;67152;36.266;32.294;2023-02-15T08:44:14;8.25;;;4.22;;
77955;SDS011;67152;36.266;32.294;2023-02-15T08:46:43;6.13;;;2.85;;
77955;SDS011;67152;36.266;32.294;2023-02-15T08:49:12;5.00;;;2.42;;
77955;SDS011;67152;36.266;32.294;2023-02-15T08:51:41;4.45;;;2.45;;
77955;SDS011;67152;36.266;32.294;2023-02-15T08:54:10;7.10;;;3.92;;
77955;SDS011;67152;36.266;32.294;2023-02-15T08:56:41;3.70;;;2.13;;
77955;SDS011;67152;36.266;32.294;2023-02-15T08:59:12;4.28;;;2.05;;
77955;SDS011;67152;36.266;32.294;2023-02-15T09:01:42;12.25;;;4.25;;
77955;SDS011;67152;36.266;32.294;2023-02-15T09:06:37;3.10;;;2.38;;
77955;SDS011;67152;36.266;32.294;2023-02-15T09:09:05;4.45;;;2.80;;
77955;SDS011;67152;36.266;32.294;2023-02-15T09:11:35;7.32;;;2.88;;
77955;SDS011;67152;36.266;32.294;2023-02-15T09:14:05;4.93;;;2.50;;
77955;SDS011;67152;36.266;32.294;2023-02-15T09:16:36;3.80;;;2.30;;
77955;SDS011;67152;36.266;32.294;2023-02-15T09:19:04;6.07;;;3.03;;
77955;SDS011;67152;36.266;32.294;2023-02-15T09:21:32;8.60;;;2.90;;
77955;SDS011;67152;36.266;32.294;2023-02-15T09:24:01;5.47;;;3.13;;
77955;SDS011;67152;36.266;32.294;2023-02-15T09:26:31;4.50;;;3.00;;
77955;SDS011;67152;36.266;32.294;2023-02-15T09:28:59;3.30;;;1.95;;
77955;SDS011;67152;36.266;32.294;2023-02-15T09:31:30;6.40;;;2.03;;
77955;SDS011;67152;36.266;32.294;2023-02-15T09:34:02;4.95;;;2.78;;
77955;SDS011;67152;36.266;32.294;2023-02-15T09:36:33;4.63;;;2.70;;
77955;SDS011;67152;36.266;32.294;2023-02-15T09:39:12;7.25;;;3.38;;
77955;SDS011;67152;36.266;32.294;2023-02-15T10:00:37;6.88;;;3.17;;
77955;SDS011;67152;36.266;32.294;2023-02-15T10:06:12;4.63;;;2.10;;
77955;SDS011;67152;36.266;32.294;2023-02-15T10:11:35;6.57;;;3.40;;
77955;SDS011;67152;36.266;32.294;2023-02-15T10:17:31;5.13;;;2.15;;
77955;SDS011;67152;36.266;32.294;2023-02-15T10:28:22;6.65;;;2.40;;
77955;SDS011;67152;36.266;32.294;2023-02-15T10:31:12;3.78;;;2.50;;
77955;SDS011;67152;36.266;32.294;2023-02-15T10:33:51;4.07;;;2.55;;
77955;SDS011;67152;36.266;32.294;2023-02-15T10:37:02;6.65;;;1.92;;
77955;SDS011;67152;36.266;32.294;2023-02-15T10:45:15;5.78;;;3.15;;
77955;SDS011;67152;36.266;32.294;2023-02-15T10:50:27;3.15;;;1.70;;
77955;SDS011;67152;36.266;32.294;2023-02-15T10:58:54;4.57;;;1.95;;
77955;SDS011;67152;36.266;32.294;2023-02-15T11:06:41;3.00;;;1.42;;
77955;SDS011;67152;36.266;32.294;2023-02-15T11:09:12;4.18;;;2.00;;
77955;SDS011;67152;36.266;32.294;2023-02-15T11:11:41;2.85;;;1.52;;
77955;SDS011;67152;36.266;32.294;2023-02-15T11:16:58;36.38;;;3.15;;
77955;SDS011;67152;36.266;32.294;2023-02-15T11:19:33;3.72;;;1.17;;
77955;SDS011;67152;36.266;32.294;2023-02-15T11:22:02;7.18;;;2.00;;
77955;SDS011;67152;36.266;32.294;2023-02-15T11:24:37;3.03;;;1.40;;
77955;SDS011;67152;36.266;32.294;2023-02-15T11:29:57;14.43;;;1.85;;
77955;SDS011;67152;36.266;32.294;2023-02-15T11:32:45;4.18;;;2.10;;
77955;SDS011;67152;36.266;32.294;2023-02-15T11:41:03;5.13;;;1.42;;
77955;SDS011;67152;36.266;32.294;2023-02-15T11:43:28;4.63;;;2.30;;
77955;SDS011;67152;36.266;32.294;2023-02-15T11:46:06;4.90;;;1.90;;
77955;SDS011;67152;36.266;32.294;2023-02-15T11:48:34;5.13;;;2.50;;
77955;SDS011;67152;36.266;32.294;2023-02-15T11:53:32;5.07;;;2.20;;
77955;SDS011;67152;36.266;32.294;2023-02-15T11:56:00;3.38;;;1.95;;
77955;SDS011;67152;36.266;32.294;2023-02-15T12:01:10;8.95;;;2.80;;
77955;SDS011;67152;36.266;32.294;2023-02-15T12:06:23;3.92;;;2.10;;
77955;SDS011;67152;36.266;32.294;2023-02-15T12:15:02;4.68;;;2.20;;
77955;SDS011;67152;36.266;32.294;2023-02-15T12:17:38;2.80;;;1.67;;
77955;SDS011;67152;36.266;32.294;2023-02-15T12:22:51;4.03;;;1.50;;
77955;SDS011;67152;36.266;32.294;2023-02-15T12:25:21;2.47;;;1.40;;
77955;SDS011;67152;36.266;32.294;2023-02-15T12:27:49;4.78;;;1.58;;
77955;SDS011;67152;36.266;32.294;2023-02-15T12:30:25;2.90;;;1.60;;
77955;SDS011;67152;36.266;32.294;2023-02-15T12:41:37;2.33;;;1.25;;
77955;SDS011;67152;36.266;32.294;2023-02-15T12:44:07;3.88;;;1.50;;
77955;SDS011;67152;36.266;32.294;2023-02-15T12:47:05;3.15;;;1.80;;
77955;SDS011;67152;36.266;32.294;2023-02-15T12:49:43;6.40;;;2.47;;
77955;SDS011;67152;36.266;32.294;2023-02-15T12:54:44;3.80;;;1.77;;
77955;SDS011;67152;36.266;32.294;2023-02-15T12:57:13;5.55;;;1.83;;
77955;SDS011;67152;36.266;32.294;2023-02-15T12:59:54;3.75;;;1.50;;
77955;SDS011;67152;36.266;32.294;2023-02-15T13:02:27;6.00;;;1.85;;
77955;SDS011;67152;36.266;32.294;2023-02-15T13:07:59;6.50;;;2.22;;
77955;SDS011;67152;36.266;32.294;2023-02-15T13:11:18;3.10;;;1.17;;
77955;SDS011;67152;36.266;32.294;2023-02-15T13:14:01;9.32;;;1.50;;
77955;SDS011;67152;36.266;32.294;2023-02-15T13:16:37;3.05;;;1.90;;
77955;SDS011;67152;36.266;32.294;2023-02-15T13:19:46;6.13;;;1.50;;
77955;SDS011;67152;36.266;32.294;2023-02-15T13:22:14;3.45;;;1.35;;
77955;SDS011;67152;36.266;32.294;2023-02-15T13:24:46;2.97;;;1.13;;
77955;SDS011;67152;36.266;32.294;2023-02-15T13:27:16;10.65;;;2.15;;
77955;SDS011;67152;36.266;32.294;2023-02-15T13:29:50;9.07;;;2.42;;
77955;SDS011;67152;36.266;32.294;2023-02-15T13:32:30;4.45;;;1.70;;
77955;SDS011;67152;36.266;32.294;2023-02-15T13:35:00;8.23;;;2.28;;
77955;SDS011;67152;36.266;32.294;2023-02-15T13:40:07;3.47;;;1.60;;
77955;SDS011;67152;36.266;32.294;2023-02-15T13:42:45;2.83;;;1.45;;
77955;SDS011;67152;36.266;32.294;2023-02-15T13:50:32;2.58;;;1.48;;
77955;SDS011;67152;36.266;32.294;2023-02-15T13:56:13;2.30;;;1.30;;
77955;SDS011;67152;36.266;32.294;2023-02-15T14:01:32;5.25;;;2.50;;
77955;SDS011;67152;36.266;32.294;2023-02-15T14:07:16;6.65;;;2.45;;
77955;SDS011;67152;36.266;32.294;2023-02-15T14:10:17;8.20;;;1.95;;
77955;SDS011;67152;36.266;32.294;2023-02-15T14:28:03;4.03;;;2.33;;
77955;SDS011;67152;36.266;32.294;2023-02-15T14:30:40;10.77;;;2.47;;
77955;SDS011;67152;36.266;32.294;2023-02-15T14:35:50;9.27;;;2.78;;
77955;SDS011;67152;36.266;32.294;2023-02-15T14:44:22;6.97;;;3.67;;
77955;SDS011;67152;36.266;32.294;2023-02-15T14:46:59;5.93;;;2.28;;
77955;SDS011;67152;36.266;32.294;2023-02-15T14:49:44;15.10;;;3.08;;
77955;SDS011;67152;36.266;32.294;2023-02-15T14:52:11;11.60;;;3.03;;
77955;SDS011;67152;36.266;32.294;2023-02-15T14:54:58;19.95;;;4.95;;
77955;SDS011;67152;36.266;32.294;2023-02-15T14:57:26;6.97;;;2.50;;
77955;SDS011;67152;36.266;32.294;2023-02-15T14:59:57;6.25;;;2.30;;
77955;SDS011;67152;36.266;32.294;2023-02-15T15:07:51;4.82;;;2.38;;
77955;SDS011;67152;36.266;32.294;2023-02-15T15:12:53;8.57;;;3.22;;
77955;SDS011;67152;36.266;32.294;2023-02-15T15:17:55;2.80;;;1.75;;
77955;SDS011;67152;36.266;32.294;2023-02-15T15:45:48;8.90;;;3.88;;
77955;SDS011;67152;36.266;32.294;2023-02-15T15:48:31;5.80;;;2.72;;
77955;SDS011;67152;36.266;32.294;2023-02-15T15:51:04;4.10;;;2.25;;
77955;SDS011;67152;36.266;32.294;2023-02-15T15:53:38;8.15;;;3.67;;
77955;SDS011;67152;36.266;32.294;2023-02-15T15:56:11;2.75;;;1.98;;
77955;SDS011;67152;36.266;32.294;2023-02-15T15:58:42;10.35;;;3.03;;
77955;SDS011;67152;36.266;32.294;2023-02-15T16:01:11;7.07;;;2.53;;
77955;SDS011;67152;36.266;32.294;2023-02-15T16:03:49;3.28;;;1.83;;
77955;SDS011;67152;36.266;32.294;2023-02-15T16:06:28;4.22;;;1.98;;
77955;SDS011;67152;36.266;32.294;2023-02-15T16:11:50;2.38;;;1.52;;
77955;SDS011;67152;36.266;32.294;2023-02-15T16:14:29;11.23;;;2.67;;
77955;SDS011;67152;36.266;32.294;2023-02-15T16:16:58;3.75;;;2.08;;
77955;SDS011;67152;36.266;32.294;2023-02-15T16:19:28;3.65;;;1.70;;
77955;SDS011;67152;36.266;32.294;2023-02-15T16:21:58;2.80;;;1.38;;
77955;SDS011;67152;36.266;32.294;2023-02-15T16:27:31;9.20;;;2.40;;
77955;SDS011;67152;36.266;32.294;2023-02-15T16:33:03;7.75;;;1.85;;
77955;SDS011;67152;36.266;32.294;2023-02-15T16:35:33;19.25;;;2.92;;
77955;SDS011;67152;36.266;32.294;2023-02-15T16:38:01;3.55;;;1.83;;
77955;SDS011;67152;36.266;32.294;2023-02-15T16:40:43;2.72;;;2.08;;
77955;SDS011;67152;36.266;32.294;2023-02-15T16:43:26;0.98;;;0.70;;
77955;SDS011;67152;36.266;32.294;2023-02-15T16:45:58;4.47;;;1.95;;
77955;SDS011;67152;36.266;32.294;2023-02-15T16:48:31;2.72;;;1.67;;
77955;SDS011;67152;36.266;32.294;2023-02-15T16:51:01;2.75;;;1.73;;
77955;SDS011;67152;36.266;32.294;2023-02-15T16:53:28;3.50;;;1.55;;
77955;SDS011;67152;36.266;32.294;2023-02-15T16:55:57;6.60;;;3.00;;
77955;SDS011;67152;36.266;32.294;2023-02-15T16:58:28;6.72;;;3.65;;
77955;SDS011;67152;36.266;32.294;2023-02-15T17:01:05;2.97;;;1.48;;
77955;SDS011;67152;36.266;32.294;2023-02-15T17:03:36;5.97;;;2.38;;
77955;SDS011;67152;36.266;32.294;2023-02-15T17:06:04;6.70;;;1.90;;
77955;SDS011;67152;36.266;32.294;2023-02-15T17:08:50;5.53;;;2.20;;
77955;SDS011;67152;36.266;32.294;2023-02-15T17:11:18;11.18;;;2.78;;
77955;SDS011;67152;36.266;32.294;2023-02-15T17:16:36;14.13;;;4.15;;
77955;SDS011;67152;36.266;32.294;2023-02-15T17:19:17;12.30;;;2.70;;
77955;SDS011;67152;36.266;32.294;2023-02-15T17:21:58;3.03;;;1.40;;
77955;SDS011;67152;36.266;32.294;2023-02-15T17:26:58;6.13;;;2.97;;
77955;SDS011;67152;36.266;32.294;2023-02-15T17:29:33;6.90;;;2.30;;
77955;SDS011;67152;36.266;32.294;2023-02-15T17:32:05;4.03;;;1.67;;
77955;SDS011;67152;36.266;32.294;2023-02-15T17:37:31;2.63;;;1.23;;
77955;SDS011;67152;36.266;32.294;2023-02-15T17:40:21;11.32;;;2.03;;
77955;SDS011;67152;36.266;32.294;2023-02-15T17:42:53;4.07;;;1.98;;
77955;SDS011;67152;36.266;32.294;2023-02-15T17:45:21;7.72;;;2.47;;
77955;SDS011;67152;36.266;32.294;2023-02-15T17:47:51;3.50;;;1.48;;
77955;SDS011;67152;36.266;32.294;2023-02-15T17:50:24;3.50;;;1.80;;
77955;SDS011;67152;36.266;32.294;2023-02-15T17:52:53;2.90;;;1.67;;
77955;SDS011;67152;36.266;32.294;2023-02-15T17:55:21;3.15;;;1.40;;
77955;SDS011;67152;36.266;32.294;2023-02-15T17:58:02;4.88;;;1.35;;
77955;SDS011;67152;36.266;32.294;2023-02-15T18:00:36;4.00;;;1.65;;
77955;SDS011;67152;36.266;32.294;2023-02-15T18:03:28;5.05;;;1.92;;
77955;SDS011;67152;36.266;32.294;2023-02-15T18:06:25;9.38;;;2.50;;
77955;SDS011;67152;36.266;32.294;2023-02-15T18:09:14;9.25;;;2.35;;
77955;SDS011;67152;36.266;32.294;2023-02-15T18:12:23;4.70;;;2.83;;
77955;SDS011;67152;36.266;32.294;2023-02-15T18:14:55;34.17;;;6.03;;
77955;SDS011;67152;36.266;32.294;2023-02-15T18:17:26;3.63;;;1.88;;
77955;SDS011;67152;36.266;32.294;2023-02-15T18:19:56;4.43;;;2.58;;
77955;SDS011;67152;36.266;32.294;2023-02-15T18:22:23;7.38;;;2.95;;
77955;SDS011;67152;36.266;32.294;2023-02-15T18:24:54;5.53;;;2.47;;
77955;SDS011;67152;36.266;32.294;2023-02-15T18:27:22;7.15;;;2.85;;
77955;SDS011;67152;36.266;32.294;2023-02-15T18:29:50;5.50;;;2.40;;
77955;SDS011;67152;36.266;32.294;2023-02-15T18:32:21;5.93;;;2.65;;
77955;SDS011;67152;36.266;32.294;2023-02-15T18:34:55;6.03;;;3.40;;
77955;SDS011;67152;36.266;32.294;2023-02-15T18:37:27;10.55;;;4.68;;
77955;SDS011;67152;36.266;32.294;2023-02-15T18:39:59;16.67;;;3.63;;
77955;SDS011;67152;36.266;32.294;2023-02-15T18:42:30;6.53;;;2.15;;
77955;SDS011;67152;36.266;32.294;2023-02-15T18:45:11;5.50;;;3.38;;
77955;SDS011;67152;36.266;32.294;2023-02-15T18:47:47;4.78;;;2.45;;
77955;SDS011;67152;36.266;32.294;2023-02-15T18:50:17;5.38;;;3.00;;
77955;SDS011;67152;36.266;32.294;2023-02-15T18:52:49;6.32;;;3.72;;
77955;SDS011;67152;36.266;32.294;2023-02-15T18:57:47;8.68;;;4.32;;
77955;SDS011;67152;36.266;32.294;2023-02-15T19:00:16;7.15;;;3.13;;
77955;SDS011;67152;36.266;32.294;2023-02-15T19:02:45;6.75;;;3.55;;